sensor_id;sensor_type;location;lat;lon;timestamp;P1;durP1;ratioP1;P2;durP2;ratioP2
76284;SDS011;65096;50.998;7.098;2023-06-26T00:00:06;8.85;;;4.93;;
76284;SDS011;65096;50.998;7.098;2023-06-26T00:02:50;9.85;;;5.60;;
76284;SDS011;65096;50.998;7.098;2023-06-26T00:05:25;8.80;;;4.90;;
76284;SDS011;65096;50.998;7.098;2023-06-26T00:07:59;9.00;;;5.28;;
76284;SDS011;65096;50.998;7.098;2023-06-26T00:10:34;9.40;;;5.60;;
76284;SDS011;65096;50.998;7.098;2023-06-26T00:13:14;9.65;;;5.35;;
76284;SDS011;65096;50.998;7.098;2023-06-26T00:15:46;9.18;;;5.13;;
76284;SDS011;65096;50.998;7.098;2023-06-26T00:18:15;9.13;;;5.43;;
76284;SDS011;65096;50.998;7.098;2023-06-26T00:20:46;10.05;;;5.30;;
76284;SDS011;65096;50.998;7.098;2023-06-26T00:23:22;8.95;;;5.93;;
76284;SDS011;65096;50.998;7.098;2023-06-26T00:26:01;9.05;;;5.47;;
76284;SDS011;65096;50.998;7.098;2023-06-26T00:28:39;9.95;;;5.40;;
76284;SDS011;65096;50.998;7.098;2023-06-26T00:33:42;8.82;;;5.40;;
76284;SDS011;65096;50.998;7.098;2023-06-26T00:36:13;9.02;;;5.53;;
76284;SDS011;65096;50.998;7.098;2023-06-26T00:41:15;10.68;;;5.97;;
76284;SDS011;65096;50.998;7.098;2023-06-26T00:44:02;8.45;;;5.25;;
76284;SDS011;65096;50.998;7.098;2023-06-26T00:46:35;9.93;;;5.22;;
76284;SDS011;65096;50.998;7.098;2023-06-26T00:49:07;8.77;;;5.45;;
76284;SDS011;65096;50.998;7.098;2023-06-26T00:52:10;8.93;;;5.30;;
76284;SDS011;65096;50.998;7.098;2023-06-26T00:57:42;9.80;;;5.72;;
76284;SDS011;65096;50.998;7.098;2023-06-26T01:00:14;9.98;;;6.05;;
76284;SDS011;65096;50.998;7.098;2023-06-26T01:02:49;8.93;;;5.40;;
76284;SDS011;65096;50.998;7.098;2023-06-26T01:05:37;8.43;;;5.38;;
76284;SDS011;65096;50.998;7.098;2023-06-26T01:08:25;8.68;;;5.30;;
76284;SDS011;65096;50.998;7.098;2023-06-26T01:11:02;8.25;;;5.47;;
76284;SDS011;65096;50.998;7.098;2023-06-26T01:13:31;8.20;;;4.85;;
76284;SDS011;65096;50.998;7.098;2023-06-26T01:16:21;9.63;;;6.07;;
76284;SDS011;65096;50.998;7.098;2023-06-26T01:19:23;9.85;;;5.95;;
76284;SDS011;65096;50.998;7.098;2023-06-26T01:21:56;9.10;;;5.30;;
76284;SDS011;65096;50.998;7.098;2023-06-26T01:24:42;10.68;;;5.55;;
76284;SDS011;65096;50.998;7.098;2023-06-26T01:27:25;8.98;;;5.28;;
76284;SDS011;65096;50.998;7.098;2023-06-26T01:30:07;8.82;;;5.20;;
76284;SDS011;65096;50.998;7.098;2023-06-26T01:32:42;10.00;;;5.43;;
76284;SDS011;65096;50.998;7.098;2023-06-26T01:35:12;10.05;;;5.38;;
76284;SDS011;65096;50.998;7.098;2023-06-26T01:37:47;10.85;;;5.30;;
76284;SDS011;65096;50.998;7.098;2023-06-26T01:40:16;9.50;;;5.75;;
76284;SDS011;65096;50.998;7.098;2023-06-26T01:42:48;9.07;;;5.55;;
76284;SDS011;65096;50.998;7.098;2023-06-26T01:45:18;9.98;;;5.70;;
76284;SDS011;65096;50.998;7.098;2023-06-26T01:47:51;9.35;;;5.35;;
76284;SDS011;65096;50.998;7.098;2023-06-26T01:50:24;9.50;;;5.65;;
76284;SDS011;65096;50.998;7.098;2023-06-26T01:53:02;9.38;;;5.32;;
76284;SDS011;65096;50.998;7.098;2023-06-26T01:55:41;10.75;;;5.70;;
76284;SDS011;65096;50.998;7.098;2023-06-26T01:58:16;9.38;;;5.68;;
76284;SDS011;65096;50.998;7.098;2023-06-26T02:00:47;10.57;;;5.55;;
76284;SDS011;65096;50.998;7.098;2023-06-26T02:03:18;9.38;;;6.00;;
76284;SDS011;65096;50.998;7.098;2023-06-26T02:05:50;8.85;;;5.32;;
76284;SDS011;65096;50.998;7.098;2023-06-26T02:08:18;11.85;;;6.15;;
76284;SDS011;65096;50.998;7.098;2023-06-26T02:10:48;9.20;;;5.55;;
76284;SDS011;65096;50.998;7.098;2023-06-26T02:13:18;9.27;;;5.43;;
76284;SDS011;65096;50.998;7.098;2023-06-26T02:15:47;8.95;;;5.50;;
76284;SDS011;65096;50.998;7.098;2023-06-26T02:18:18;9.35;;;5.03;;
76284;SDS011;65096;50.998;7.098;2023-06-26T02:20:47;9.00;;;5.28;;
76284;SDS011;65096;50.998;7.098;2023-06-26T02:23:23;8.77;;;5.40;;
76284;SDS011;65096;50.998;7.098;2023-06-26T02:26:05;8.40;;;4.82;;
76284;SDS011;65096;50.998;7.098;2023-06-26T02:31:28;9.40;;;5.50;;
76284;SDS011;65096;50.998;7.098;2023-06-26T02:34:09;8.60;;;5.32;;
76284;SDS011;65096;50.998;7.098;2023-06-26T02:36:55;9.38;;;5.30;;
76284;SDS011;65096;50.998;7.098;2023-06-26T02:39:45;8.70;;;5.15;;
76284;SDS011;65096;50.998;7.098;2023-06-26T02:42:24;8.30;;;4.90;;
76284;SDS011;65096;50.998;7.098;2023-06-26T02:47:59;8.93;;;5.07;;
76284;SDS011;65096;50.998;7.098;2023-06-26T02:50:29;8.70;;;5.45;;
76284;SDS011;65096;50.998;7.098;2023-06-26T02:53:02;9.02;;;5.55;;
76284;SDS011;65096;50.998;7.098;2023-06-26T02:55:40;9.98;;;5.63;;
76284;SDS011;65096;50.998;7.098;2023-06-26T02:58:10;8.85;;;5.53;;
76284;SDS011;65096;50.998;7.098;2023-06-26T03:00:56;11.15;;;6.50;;
76284;SDS011;65096;50.998;7.098;2023-06-26T03:03:34;9.43;;;5.30;;
76284;SDS011;65096;50.998;7.098;2023-06-26T03:06:34;10.20;;;5.63;;
76284;SDS011;65096;50.998;7.098;2023-06-26T03:09:38;9.85;;;6.75;;
76284;SDS011;65096;50.998;7.098;2023-06-26T03:12:41;9.77;;;5.75;;
76284;SDS011;65096;50.998;7.098;2023-06-26T03:15:34;9.90;;;5.40;;
76284;SDS011;65096;50.998;7.098;2023-06-26T03:18:33;10.65;;;5.75;;
76284;SDS011;65096;50.998;7.098;2023-06-26T03:21:09;10.55;;;5.85;;
76284;SDS011;65096;50.998;7.098;2023-06-26T03:24:17;10.13;;;5.90;;
76284;SDS011;65096;50.998;7.098;2023-06-26T03:27:29;10.07;;;6.03;;
76284;SDS011;65096;50.998;7.098;2023-06-26T03:30:13;10.73;;;5.97;;
76284;SDS011;65096;50.998;7.098;2023-06-26T03:36:39;9.20;;;5.90;;
76284;SDS011;65096;50.998;7.098;2023-06-26T03:39:51;9.65;;;5.95;;
76284;SDS011;65096;50.998;7.098;2023-06-26T03:42:25;11.38;;;6.10;;
76284;SDS011;65096;50.998;7.098;2023-06-26T03:45:26;11.15;;;5.82;;
76284;SDS011;65096;50.998;7.098;2023-06-26T03:48:23;9.32;;;5.22;;
76284;SDS011;65096;50.998;7.098;2023-06-26T03:51:38;9.30;;;5.78;;
76284;SDS011;65096;50.998;7.098;2023-06-26T03:57:07;10.55;;;5.72;;
76284;SDS011;65096;50.998;7.098;2023-06-26T03:59:35;9.65;;;6.00;;
76284;SDS011;65096;50.998;7.098;2023-06-26T04:02:20;9.48;;;5.90;;
76284;SDS011;65096;50.998;7.098;2023-06-26T04:05:11;10.82;;;6.53;;
76284;SDS011;65096;50.998;7.098;2023-06-26T04:08:23;10.57;;;6.07;;
76284;SDS011;65096;50.998;7.098;2023-06-26T04:11:52;10.25;;;6.20;;
76284;SDS011;65096;50.998;7.098;2023-06-26T04:14:08;9.70;;;5.72;;
76284;SDS011;65096;50.998;7.098;2023-06-26T04:16:44;11.45;;;6.50;;
76284;SDS011;65096;50.998;7.098;2023-06-26T04:19:19;10.27;;;5.75;;
76284;SDS011;65096;50.998;7.098;2023-06-26T04:22:08;10.82;;;6.07;;
76284;SDS011;65096;50.998;7.098;2023-06-26T04:49:25;9.35;;;5.55;;
76284;SDS011;65096;50.998;7.098;2023-06-26T04:52:51;9.70;;;5.10;;
76284;SDS011;65096;50.998;7.098;2023-06-26T05:17:04;9.75;;;5.15;;
76284;SDS011;65096;50.998;7.098;2023-06-26T05:19:25;9.38;;;4.55;;
76284;SDS011;65096;50.998;7.098;2023-06-26T05:35:30;8.90;;;4.50;;
76284;SDS011;65096;50.998;7.098;2023-06-26T06:24:04;8.82;;;4.03;;
76284;SDS011;65096;50.998;7.098;2023-06-26T06:27:23;10.18;;;4.00;;
76284;SDS011;65096;50.998;7.098;2023-06-26T06:30:47;9.73;;;3.83;;
76284;SDS011;65096;50.998;7.098;2023-06-26T06:37:05;8.65;;;3.85;;
76284;SDS011;65096;50.998;7.098;2023-06-26T09:06:35;11.15;;;4.38;;
76284;SDS011;65096;50.998;7.098;2023-06-26T09:16:15;12.07;;;4.47;;
76284;SDS011;65096;50.998;7.098;2023-06-26T11:19:28;6.30;;;2.28;;
76284;SDS011;65096;50.998;7.098;2023-06-26T11:29:22;8.35;;;2.60;;
76284;SDS011;65096;50.998;7.098;2023-06-26T11:32:35;9.18;;;2.50;;
76284;SDS011;65096;50.998;7.098;2023-06-26T12:02:27;7.43;;;2.30;;
76284;SDS011;65096;50.998;7.098;2023-06-26T12:22:05;6.75;;;1.67;;
76284;SDS011;65096;50.998;7.098;2023-06-26T12:24:32;6.32;;;1.92;;
76284;SDS011;65096;50.998;7.098;2023-06-26T12:26:59;9.25;;;2.20;;
76284;SDS011;65096;50.998;7.098;2023-06-26T12:29:31;5.10;;;2.05;;
76284;SDS011;65096;50.998;7.098;2023-06-26T12:31:59;7.70;;;1.98;;
76284;SDS011;65096;50.998;7.098;2023-06-26T12:34:27;5.97;;;1.85;;
76284;SDS011;65096;50.998;7.098;2023-06-26T12:36:58;7.55;;;2.30;;
76284;SDS011;65096;50.998;7.098;2023-06-26T12:39:28;10.75;;;1.98;;
76284;SDS011;65096;50.998;7.098;2023-06-26T12:41:57;11.63;;;2.03;;
76284;SDS011;65096;50.998;7.098;2023-06-26T12:44:26;8.63;;;2.15;;
76284;SDS011;65096;50.998;7.098;2023-06-26T12:46:55;7.90;;;2.05;;
76284;SDS011;65096;50.998;7.098;2023-06-26T12:49:30;7.88;;;2.28;;
76284;SDS011;65096;50.998;7.098;2023-06-26T12:51:58;7.90;;;2.25;;
76284;SDS011;65096;50.998;7.098;2023-06-26T12:54:27;6.90;;;2.00;;
76284;SDS011;65096;50.998;7.098;2023-06-26T12:56:54;7.30;;;1.95;;
76284;SDS011;65096;50.998;7.098;2023-06-26T12:59:21;6.57;;;1.90;;
76284;SDS011;65096;50.998;7.098;2023-06-26T13:01:48;8.15;;;2.10;;
76284;SDS011;65096;50.998;7.098;2023-06-26T13:04:14;8.45;;;2.35;;
76284;SDS011;65096;50.998;7.098;2023-06-26T13:06:42;6.43;;;1.75;;
76284;SDS011;65096;50.998;7.098;2023-06-26T13:09:10;5.45;;;1.80;;
76284;SDS011;65096;50.998;7.098;2023-06-26T13:11:37;5.25;;;1.63;;
76284;SDS011;65096;50.998;7.098;2023-06-26T13:14:04;5.18;;;1.70;;
76284;SDS011;65096;50.998;7.098;2023-06-26T13:16:30;4.80;;;1.60;;
76284;SDS011;65096;50.998;7.098;2023-06-26T13:18:58;7.82;;;1.90;;
76284;SDS011;65096;50.998;7.098;2023-06-26T13:21:25;5.03;;;1.45;;
76284;SDS011;65096;50.998;7.098;2023-06-26T13:23:51;4.55;;;1.40;;
76284;SDS011;65096;50.998;7.098;2023-06-26T13:26:20;3.88;;;1.42;;
76284;SDS011;65096;50.998;7.098;2023-06-26T13:28:46;5.10;;;1.42;;
76284;SDS011;65096;50.998;7.098;2023-06-26T13:31:13;4.72;;;1.65;;
76284;SDS011;65096;50.998;7.098;2023-06-26T13:33:40;6.57;;;1.70;;
76284;SDS011;65096;50.998;7.098;2023-06-26T13:36:07;6.07;;;1.40;;
76284;SDS011;65096;50.998;7.098;2023-06-26T13:38:33;8.35;;;1.40;;
76284;SDS011;65096;50.998;7.098;2023-06-26T13:41:00;10.60;;;1.88;;
76284;SDS011;65096;50.998;7.098;2023-06-26T13:43:28;4.72;;;1.42;;
76284;SDS011;65096;50.998;7.098;2023-06-26T13:45:55;5.30;;;1.50;;
76284;SDS011;65096;50.998;7.098;2023-06-26T13:48:22;4.82;;;1.50;;
76284;SDS011;65096;50.998;7.098;2023-06-26T13:50:50;5.13;;;1.50;;
76284;SDS011;65096;50.998;7.098;2023-06-26T13:53:17;4.70;;;1.50;;
76284;SDS011;65096;50.998;7.098;2023-06-26T13:55:43;4.07;;;1.38;;
76284;SDS011;65096;50.998;7.098;2023-06-26T13:58:10;5.50;;;1.50;;
76284;SDS011;65096;50.998;7.098;2023-06-26T14:00:40;5.65;;;1.50;;
76284;SDS011;65096;50.998;7.098;2023-06-26T14:03:09;5.75;;;1.38;;
76284;SDS011;65096;50.998;7.098;2023-06-26T14:05:36;11.85;;;1.70;;
76284;SDS011;65096;50.998;7.098;2023-06-26T14:08:04;6.25;;;1.60;;
76284;SDS011;65096;50.998;7.098;2023-06-26T14:10:31;4.55;;;1.48;;
76284;SDS011;65096;50.998;7.098;2023-06-26T14:12:59;5.97;;;1.50;;
76284;SDS011;65096;50.998;7.098;2023-06-26T14:15:25;4.63;;;1.55;;
76284;SDS011;65096;50.998;7.098;2023-06-26T14:17:54;3.85;;;1.27;;
76284;SDS011;65096;50.998;7.098;2023-06-26T14:20:21;5.70;;;1.50;;
76284;SDS011;65096;50.998;7.098;2023-06-26T14:22:48;5.07;;;1.40;;
76284;SDS011;65096;50.998;7.098;2023-06-26T14:25:16;7.05;;;1.48;;
76284;SDS011;65096;50.998;7.098;2023-06-26T14:27:43;7.20;;;1.70;;
76284;SDS011;65096;50.998;7.098;2023-06-26T14:30:10;7.70;;;1.30;;
76284;SDS011;65096;50.998;7.098;2023-06-26T14:32:38;5.90;;;1.60;;
76284;SDS011;65096;50.998;7.098;2023-06-26T14:35:06;4.80;;;1.50;;
76284;SDS011;65096;50.998;7.098;2023-06-26T14:37:35;3.92;;;1.40;;
76284;SDS011;65096;50.998;7.098;2023-06-26T14:40:04;4.65;;;1.60;;
76284;SDS011;65096;50.998;7.098;2023-06-26T14:42:32;4.65;;;1.55;;
76284;SDS011;65096;50.998;7.098;2023-06-26T14:44:59;3.38;;;1.38;;
76284;SDS011;65096;50.998;7.098;2023-06-26T14:47:25;4.43;;;1.30;;
76284;SDS011;65096;50.998;7.098;2023-06-26T14:49:52;3.30;;;1.35;;
76284;SDS011;65096;50.998;7.098;2023-06-26T14:52:20;5.57;;;1.27;;
76284;SDS011;65096;50.998;7.098;2023-06-26T14:54:47;4.40;;;1.40;;
76284;SDS011;65096;50.998;7.098;2023-06-26T14:57:13;8.65;;;1.80;;
76284;SDS011;65096;50.998;7.098;2023-06-26T14:59:40;6.60;;;1.73;;
76284;SDS011;65096;50.998;7.098;2023-06-26T15:02:06;5.38;;;1.50;;
76284;SDS011;65096;50.998;7.098;2023-06-26T15:04:33;6.47;;;1.50;;
76284;SDS011;65096;50.998;7.098;2023-06-26T15:06:59;3.80;;;1.50;;
76284;SDS011;65096;50.998;7.098;2023-06-26T15:09:27;4.65;;;1.33;;
76284;SDS011;65096;50.998;7.098;2023-06-26T15:11:54;4.32;;;1.30;;
76284;SDS011;65096;50.998;7.098;2023-06-26T15:14:21;5.25;;;1.60;;
76284;SDS011;65096;50.998;7.098;2023-06-26T15:16:47;5.15;;;1.58;;
76284;SDS011;65096;50.998;7.098;2023-06-26T15:19:14;6.30;;;1.98;;
76284;SDS011;65096;50.998;7.098;2023-06-26T15:21:40;6.78;;;1.55;;
76284;SDS011;65096;50.998;7.098;2023-06-26T15:24:07;4.03;;;1.30;;
76284;SDS011;65096;50.998;7.098;2023-06-26T15:26:35;4.35;;;1.40;;
76284;SDS011;65096;50.998;7.098;2023-06-26T15:29:02;7.55;;;1.55;;
76284;SDS011;65096;50.998;7.098;2023-06-26T15:31:29;3.67;;;1.40;;
76284;SDS011;65096;50.998;7.098;2023-06-26T15:33:56;4.05;;;1.30;;
76284;SDS011;65096;50.998;7.098;2023-06-26T15:36:23;3.13;;;1.40;;
76284;SDS011;65096;50.998;7.098;2023-06-26T15:38:49;8.57;;;1.50;;
76284;SDS011;65096;50.998;7.098;2023-06-26T15:41:16;5.93;;;1.35;;
76284;SDS011;65096;50.998;7.098;2023-06-26T15:43:44;4.35;;;1.48;;
76284;SDS011;65096;50.998;7.098;2023-06-26T15:46:11;3.22;;;1.30;;
76284;SDS011;65096;50.998;7.098;2023-06-26T15:48:37;5.53;;;1.60;;
76284;SDS011;65096;50.998;7.098;2023-06-26T15:51:04;4.57;;;1.33;;
76284;SDS011;65096;50.998;7.098;2023-06-26T15:53:34;4.03;;;1.50;;
76284;SDS011;65096;50.998;7.098;2023-06-26T15:56:03;5.18;;;1.95;;
76284;SDS011;65096;50.998;7.098;2023-06-26T15:58:32;3.00;;;1.15;;
76284;SDS011;65096;50.998;7.098;2023-06-26T16:01:01;5.45;;;1.38;;
76284;SDS011;65096;50.998;7.098;2023-06-26T16:03:28;5.75;;;1.80;;
76284;SDS011;65096;50.998;7.098;2023-06-26T16:05:54;7.32;;;1.80;;
76284;SDS011;65096;50.998;7.098;2023-06-26T16:08:21;6.53;;;1.60;;
76284;SDS011;65096;50.998;7.098;2023-06-26T16:10:48;4.82;;;1.60;;
76284;SDS011;65096;50.998;7.098;2023-06-26T16:13:14;4.53;;;1.48;;
76284;SDS011;65096;50.998;7.098;2023-06-26T16:15:43;3.40;;;1.60;;
76284;SDS011;65096;50.998;7.098;2023-06-26T16:18:11;4.50;;;1.52;;
76284;SDS011;65096;50.998;7.098;2023-06-26T16:20:38;5.43;;;1.45;;
76284;SDS011;65096;50.998;7.098;2023-06-26T16:23:04;4.55;;;1.60;;
76284;SDS011;65096;50.998;7.098;2023-06-26T16:25:31;3.28;;;1.33;;
76284;SDS011;65096;50.998;7.098;2023-06-26T16:27:58;4.38;;;1.70;;
76284;SDS011;65096;50.998;7.098;2023-06-26T16:30:25;6.30;;;1.85;;
76284;SDS011;65096;50.998;7.098;2023-06-26T16:32:51;5.00;;;1.98;;
76284;SDS011;65096;50.998;7.098;2023-06-26T16:35:20;5.82;;;1.90;;
76284;SDS011;65096;50.998;7.098;2023-06-26T16:37:46;7.90;;;1.75;;
76284;SDS011;65096;50.998;7.098;2023-06-26T16:40:13;4.10;;;1.35;;
76284;SDS011;65096;50.998;7.098;2023-06-26T16:42:40;5.15;;;1.70;;
76284;SDS011;65096;50.998;7.098;2023-06-26T16:45:07;3.55;;;1.40;;
76284;SDS011;65096;50.998;7.098;2023-06-26T16:47:34;3.50;;;1.40;;
76284;SDS011;65096;50.998;7.098;2023-06-26T16:50:01;4.68;;;1.60;;
76284;SDS011;65096;50.998;7.098;2023-06-26T16:52:29;4.65;;;1.55;;
76284;SDS011;65096;50.998;7.098;2023-06-26T16:54:56;5.43;;;1.58;;
76284;SDS011;65096;50.998;7.098;2023-06-26T16:57:22;6.13;;;1.60;;
76284;SDS011;65096;50.998;7.098;2023-06-26T16:59:49;5.05;;;1.50;;
76284;SDS011;65096;50.998;7.098;2023-06-26T17:02:16;5.30;;;1.52;;
76284;SDS011;65096;50.998;7.098;2023-06-26T17:04:42;5.55;;;1.60;;
76284;SDS011;65096;50.998;7.098;2023-06-26T17:07:09;5.70;;;1.88;;
76284;SDS011;65096;50.998;7.098;2023-06-26T17:09:37;3.80;;;1.40;;
76284;SDS011;65096;50.998;7.098;2023-06-26T17:12:04;6.43;;;1.60;;
76284;SDS011;65096;50.998;7.098;2023-06-26T17:14:31;3.97;;;1.40;;
76284;SDS011;65096;50.998;7.098;2023-06-26T17:16:57;3.65;;;1.40;;
76284;SDS011;65096;50.998;7.098;2023-06-26T17:19:24;4.72;;;1.20;;
76284;SDS011;65096;50.998;7.098;2023-06-26T17:21:51;6.00;;;1.40;;
76284;SDS011;65096;50.998;7.098;2023-06-26T17:24:17;3.88;;;1.38;;
76284;SDS011;65096;50.998;7.098;2023-06-26T17:26:45;3.47;;;1.50;;
76284;SDS011;65096;50.998;7.098;2023-06-26T17:29:12;4.15;;;1.40;;
76284;SDS011;65096;50.998;7.098;2023-06-26T17:31:38;4.95;;;1.50;;
76284;SDS011;65096;50.998;7.098;2023-06-26T17:34:05;3.33;;;1.50;;
76284;SDS011;65096;50.998;7.098;2023-06-26T17:36:32;4.07;;;1.45;;
76284;SDS011;65096;50.998;7.098;2023-06-26T17:38:58;6.53;;;1.42;;
76284;SDS011;65096;50.998;7.098;2023-06-26T17:41:26;3.97;;;1.30;;
76284;SDS011;65096;50.998;7.098;2023-06-26T17:43:54;3.60;;;1.50;;
76284;SDS011;65096;50.998;7.098;2023-06-26T17:46:20;3.92;;;1.30;;
76284;SDS011;65096;50.998;7.098;2023-06-26T17:48:47;4.85;;;1.40;;
76284;SDS011;65096;50.998;7.098;2023-06-26T17:51:14;4.35;;;1.38;;
76284;SDS011;65096;50.998;7.098;2023-06-26T17:53:40;4.90;;;1.58;;
76284;SDS011;65096;50.998;7.098;2023-06-26T17:56:07;4.35;;;1.40;;
76284;SDS011;65096;50.998;7.098;2023-06-26T17:58:34;4.78;;;1.30;;
76284;SDS011;65096;50.998;7.098;2023-06-26T18:01:02;3.72;;;1.25;;
76284;SDS011;65096;50.998;7.098;2023-06-26T18:03:28;4.35;;;1.38;;
76284;SDS011;65096;50.998;7.098;2023-06-26T18:05:56;4.90;;;1.45;;
76284;SDS011;65096;50.998;7.098;2023-06-26T18:08:22;6.22;;;1.35;;
76284;SDS011;65096;50.998;7.098;2023-06-26T18:10:49;4.30;;;1.30;;
76284;SDS011;65096;50.998;7.098;2023-06-26T18:13:15;3.70;;;1.38;;
76284;SDS011;65096;50.998;7.098;2023-06-26T18:15:42;3.72;;;1.20;;
76284;SDS011;65096;50.998;7.098;2023-06-26T18:18:10;3.38;;;1.38;;
76284;SDS011;65096;50.998;7.098;2023-06-26T18:20:37;2.90;;;1.30;;
76284;SDS011;65096;50.998;7.098;2023-06-26T18:23:03;2.72;;;1.10;;
76284;SDS011;65096;50.998;7.098;2023-06-26T18:25:30;3.95;;;1.33;;
76284;SDS011;65096;50.998;7.098;2023-06-26T18:27:56;4.45;;;1.50;;
76284;SDS011;65096;50.998;7.098;2023-06-26T18:30:23;3.50;;;1.30;;
76284;SDS011;65096;50.998;7.098;2023-06-26T18:32:50;2.63;;;1.23;;
76284;SDS011;65096;50.998;7.098;2023-06-26T18:35:18;3.15;;;1.25;;
76284;SDS011;65096;50.998;7.098;2023-06-26T18:37:44;3.75;;;1.50;;
76284;SDS011;65096;50.998;7.098;2023-06-26T18:40:11;3.42;;;1.30;;
76284;SDS011;65096;50.998;7.098;2023-06-26T18:42:40;2.65;;;1.20;;
76284;SDS011;65096;50.998;7.098;2023-06-26T18:45:07;2.22;;;1.15;;
76284;SDS011;65096;50.998;7.098;2023-06-26T18:47:34;4.63;;;1.40;;
76284;SDS011;65096;50.998;7.098;2023-06-26T18:50:02;3.53;;;1.33;;
76284;SDS011;65096;50.998;7.098;2023-06-26T18:52:30;2.35;;;1.20;;
76284;SDS011;65096;50.998;7.098;2023-06-26T18:54:57;5.32;;;1.50;;
76284;SDS011;65096;50.998;7.098;2023-06-26T18:57:23;3.20;;;1.45;;
76284;SDS011;65096;50.998;7.098;2023-06-26T18:59:50;4.93;;;1.63;;
76284;SDS011;65096;50.998;7.098;2023-06-26T19:02:17;5.28;;;1.40;;
76284;SDS011;65096;50.998;7.098;2023-06-26T19:04:43;5.50;;;1.45;;
76284;SDS011;65096;50.998;7.098;2023-06-26T19:07:10;5.70;;;1.40;;
76284;SDS011;65096;50.998;7.098;2023-06-26T19:09:38;3.70;;;1.40;;
76284;SDS011;65096;50.998;7.098;2023-06-26T19:12:05;2.63;;;1.40;;
76284;SDS011;65096;50.998;7.098;2023-06-26T19:14:32;2.75;;;1.38;;
76284;SDS011;65096;50.998;7.098;2023-06-26T19:16:59;6.05;;;1.70;;
76284;SDS011;65096;50.998;7.098;2023-06-26T19:19:26;3.75;;;1.48;;
76284;SDS011;65096;50.998;7.098;2023-06-26T19:21:52;4.50;;;1.65;;
76284;SDS011;65096;50.998;7.098;2023-06-26T19:24:19;3.33;;;1.40;;
76284;SDS011;65096;50.998;7.098;2023-06-26T19:26:47;3.75;;;1.48;;
76284;SDS011;65096;50.998;7.098;2023-06-26T19:29:14;3.40;;;1.20;;
76284;SDS011;65096;50.998;7.098;2023-06-26T19:31:41;3.53;;;1.10;;
76284;SDS011;65096;50.998;7.098;2023-06-26T19:34:08;4.43;;;1.33;;
76284;SDS011;65096;50.998;7.098;2023-06-26T19:36:34;4.00;;;1.23;;
76284;SDS011;65096;50.998;7.098;2023-06-26T19:39:01;3.53;;;1.30;;
76284;SDS011;65096;50.998;7.098;2023-06-26T19:41:28;3.58;;;1.17;;
76284;SDS011;65096;50.998;7.098;2023-06-26T19:43:56;3.35;;;1.27;;
76284;SDS011;65096;50.998;7.098;2023-06-26T19:46:23;3.17;;;1.30;;
76284;SDS011;65096;50.998;7.098;2023-06-26T19:48:49;3.75;;;1.40;;
76284;SDS011;65096;50.998;7.098;2023-06-26T19:51:16;5.50;;;1.60;;
76284;SDS011;65096;50.998;7.098;2023-06-26T19:53:43;3.65;;;1.40;;
76284;SDS011;65096;50.998;7.098;2023-06-26T19:56:10;5.70;;;1.42;;
76284;SDS011;65096;50.998;7.098;2023-06-26T19:58:36;2.80;;;1.48;;
76284;SDS011;65096;50.998;7.098;2023-06-26T20:01:04;4.32;;;1.55;;
76284;SDS011;65096;50.998;7.098;2023-06-26T20:03:31;4.97;;;1.70;;
76284;SDS011;65096;50.998;7.098;2023-06-26T20:05:58;3.58;;;1.23;;
76284;SDS011;65096;50.998;7.098;2023-06-26T20:08:26;4.00;;;1.30;;
76284;SDS011;65096;50.998;7.098;2023-06-26T20:10:52;6.25;;;1.33;;
76284;SDS011;65096;50.998;7.098;2023-06-26T20:13:19;3.83;;;1.40;;
76284;SDS011;65096;50.998;7.098;2023-06-26T20:15:46;4.47;;;1.25;;
76284;SDS011;65096;50.998;7.098;2023-06-26T20:18:14;2.47;;;1.15;;
76284;SDS011;65096;50.998;7.098;2023-06-26T20:20:40;2.97;;;1.20;;
76284;SDS011;65096;50.998;7.098;2023-06-26T20:23:07;3.45;;;1.10;;
76284;SDS011;65096;50.998;7.098;2023-06-26T20:25:34;4.38;;;1.30;;
76284;SDS011;65096;50.998;7.098;2023-06-26T20:28:00;5.13;;;1.17;;
76284;SDS011;65096;50.998;7.098;2023-06-26T20:30:27;3.25;;;1.20;;
76284;SDS011;65096;50.998;7.098;2023-06-26T20:32:54;4.00;;;1.40;;
76284;SDS011;65096;50.998;7.098;2023-06-26T20:35:21;2.88;;;1.10;;
76284;SDS011;65096;50.998;7.098;2023-06-26T20:37:48;4.30;;;1.50;;
76284;SDS011;65096;50.998;7.098;2023-06-26T20:40:15;4.28;;;1.40;;
76284;SDS011;65096;50.998;7.098;2023-06-26T20:42:42;3.10;;;1.23;;
76284;SDS011;65096;50.998;7.098;2023-06-26T20:45:10;3.08;;;1.13;;
76284;SDS011;65096;50.998;7.098;2023-06-26T20:47:37;2.85;;;1.30;;
76284;SDS011;65096;50.998;7.098;2023-06-26T20:50:07;2.67;;;1.15;;
76284;SDS011;65096;50.998;7.098;2023-06-26T20:52:36;1.95;;;1.20;;
76284;SDS011;65096;50.998;7.098;2023-06-26T20:55:04;4.53;;;1.50;;
76284;SDS011;65096;50.998;7.098;2023-06-26T20:57:32;2.65;;;1.13;;
76284;SDS011;65096;50.998;7.098;2023-06-26T20:59:59;5.15;;;1.23;;
76284;SDS011;65096;50.998;7.098;2023-06-26T21:02:25;4.68;;;1.30;;
76284;SDS011;65096;50.998;7.098;2023-06-26T21:04:52;4.45;;;1.35;;
76284;SDS011;65096;50.998;7.098;2023-06-26T21:07:18;4.55;;;1.55;;
76284;SDS011;65096;50.998;7.098;2023-06-26T21:09:47;3.58;;;1.30;;
76284;SDS011;65096;50.998;7.098;2023-06-26T21:12:14;5.05;;;1.30;;
76284;SDS011;65096;50.998;7.098;2023-06-26T21:14:44;4.93;;;1.30;;
76284;SDS011;65096;50.998;7.098;2023-06-26T21:17:11;3.63;;;1.27;;
76284;SDS011;65096;50.998;7.098;2023-06-26T21:19:37;3.63;;;1.20;;
76284;SDS011;65096;50.998;7.098;2023-06-26T21:22:04;4.05;;;1.38;;
76284;SDS011;65096;50.998;7.098;2023-06-26T21:24:30;3.85;;;1.40;;
76284;SDS011;65096;50.998;7.098;2023-06-26T21:26:58;3.50;;;1.50;;
76284;SDS011;65096;50.998;7.098;2023-06-26T21:29:25;4.00;;;1.42;;
76284;SDS011;65096;50.998;7.098;2023-06-26T21:31:52;4.68;;;1.50;;
76284;SDS011;65096;50.998;7.098;2023-06-26T21:34:18;2.80;;;1.40;;
76284;SDS011;65096;50.998;7.098;2023-06-26T21:36:45;4.22;;;1.50;;
76284;SDS011;65096;50.998;7.098;2023-06-26T21:39:12;3.65;;;1.30;;
76284;SDS011;65096;50.998;7.098;2023-06-26T21:41:39;3.63;;;1.50;;
76284;SDS011;65096;50.998;7.098;2023-06-26T21:44:07;3.45;;;1.50;;
76284;SDS011;65096;50.998;7.098;2023-06-26T21:46:34;4.30;;;1.48;;
76284;SDS011;65096;50.998;7.098;2023-06-26T21:49:00;4.05;;;1.55;;
76284;SDS011;65096;50.998;7.098;2023-06-26T21:51:27;4.43;;;1.30;;
76284;SDS011;65096;50.998;7.098;2023-06-26T21:53:54;3.92;;;1.40;;
76284;SDS011;65096;50.998;7.098;2023-06-26T21:56:20;5.32;;;1.40;;
76284;SDS011;65096;50.998;7.098;2023-06-26T21:58:47;4.45;;;1.30;;
76284;SDS011;65096;50.998;7.098;2023-06-26T22:01:15;3.10;;;1.23;;
76284;SDS011;65096;50.998;7.098;2023-06-26T22:03:41;5.85;;;1.58;;
76284;SDS011;65096;50.998;7.098;2023-06-26T22:06:08;2.78;;;1.30;;
76284;SDS011;65096;50.998;7.098;2023-06-26T22:08:35;3.55;;;1.48;;
76284;SDS011;65096;50.998;7.098;2023-06-26T22:11:01;4.88;;;1.60;;
76284;SDS011;65096;50.998;7.098;2023-06-26T22:13:28;4.00;;;1.40;;
76284;SDS011;65096;50.998;7.098;2023-06-26T22:15:55;4.15;;;1.50;;
76284;SDS011;65096;50.998;7.098;2023-06-26T22:18:23;5.07;;;1.73;;
76284;SDS011;65096;50.998;7.098;2023-06-26T22:20:49;4.70;;;1.63;;
76284;SDS011;65096;50.998;7.098;2023-06-26T22:23:17;3.50;;;1.52;;
76284;SDS011;65096;50.998;7.098;2023-06-26T22:25:44;3.88;;;1.40;;
76284;SDS011;65096;50.998;7.098;2023-06-26T22:28:10;4.50;;;1.70;;
76284;SDS011;65096;50.998;7.098;2023-06-26T22:30:37;5.93;;;1.80;;
76284;SDS011;65096;50.998;7.098;2023-06-26T22:33:04;5.15;;;1.50;;
76284;SDS011;65096;50.998;7.098;2023-06-26T22:35:31;3.40;;;1.45;;
76284;SDS011;65096;50.998;7.098;2023-06-26T22:37:58;4.05;;;1.58;;
76284;SDS011;65096;50.998;7.098;2023-06-26T22:40:25;3.47;;;1.35;;
76284;SDS011;65096;50.998;7.098;2023-06-26T22:42:51;4.85;;;1.65;;
76284;SDS011;65096;50.998;7.098;2023-06-26T22:45:18;5.53;;;1.70;;